createdAt,value
2017-08-12T00:01:47.573Z,93.29
2017-08-12T00:04:15.170Z,93.24
2017-08-12T00:06:42.788Z,93.33
2017-08-12T00:09:10.567Z,93.43
2017-08-12T00:11:38.153Z,93.27
2017-08-12T00:14:05.815Z,93.31
2017-08-12T00:16:33.414Z,93.23
2017-08-12T00:19:01.120Z,93.22
2017-08-12T00:21:28.911Z,93.34
2017-08-12T00:23:56.939Z,93.36
2017-08-12T00:26:24.544Z,93.35
2017-08-12T00:28:52.129Z,93.40
2017-08-12T00:31:19.763Z,93.42
2017-08-12T00:33:47.384Z,93.41
2017-08-12T00:36:15.018Z,93.40
2017-08-12T00:38:43.294Z,93.39
2017-08-12T00:41:10.938Z,93.39
2017-08-12T00:43:38.674Z,93.37
2017-08-12T00:46:06.604Z,93.42
2017-08-12T00:48:34.213Z,93.29
2017-08-12T00:51:01.814Z,93.34
2017-08-12T00:53:29.444Z,93.36
2017-08-12T00:55:57.039Z,93.28
2017-08-12T00:58:24.673Z,93.20
2017-08-12T01:00:52.363Z,93.12
2017-08-12T01:03:19.980Z,92.96
2017-08-12T01:05:47.568Z,92.82
2017-08-12T01:08:15.188Z,92.81
2017-08-12T01:10:42.766Z,92.71
2017-08-12T01:13:10.380Z,92.58
2017-08-12T01:15:37.990Z,92.66
2017-08-12T01:18:05.750Z,92.59
2017-08-12T01:20:33.375Z,92.54
2017-08-12T01:23:00.957Z,92.57
2017-08-12T01:25:28.576Z,92.67
2017-08-12T01:27:56.177Z,92.75
2017-08-12T01:30:23.788Z,92.80
2017-08-12T01:32:51.375Z,92.79
2017-08-12T01:35:19.150Z,92.77
2017-08-12T01:37:48.282Z,92.77
2017-08-12T01:40:15.889Z,92.82
2017-08-12T01:42:43.498Z,92.85
2017-08-12T01:45:11.420Z,92.83
2017-08-12T01:47:39.009Z,92.92
2017-08-12T01:50:06.627Z,93.05
2017-08-12T01:52:34.237Z,92.98
2017-08-12T01:55:01.977Z,92.96
2017-08-12T01:57:29.607Z,92.98
2017-08-12T01:59:57.180Z,92.83
2017-08-12T02:02:24.783Z,92.72
2017-08-12T02:04:52.361Z,92.55
2017-08-12T02:07:19.964Z,92.31
2017-08-12T02:09:47.544Z,92.23
2017-08-12T02:12:15.509Z,92.17
2017-08-12T02:14:43.118Z,92.18
2017-08-12T02:17:10.725Z,92.09
2017-08-12T02:19:38.356Z,91.97
2017-08-12T02:22:05.947Z,91.73
2017-08-12T02:24:33.586Z,91.58
2017-08-12T02:27:01.195Z,91.36
2017-08-12T02:29:28.846Z,91.47
2017-08-12T02:31:56.427Z,91.47
2017-08-12T02:34:24.054Z,91.01
2017-08-12T02:36:51.655Z,90.91
2017-08-12T02:39:19.595Z,91.30
2017-08-12T02:41:47.188Z,91.35
2017-08-12T02:44:14.799Z,91.42
2017-08-12T02:46:42.399Z,91.40
2017-08-12T02:49:09.978Z,91.28
2017-08-12T02:51:37.579Z,91.21
2017-08-12T02:54:05.190Z,90.99
2017-08-12T02:56:32.829Z,90.83
2017-08-12T02:59:00.424Z,90.90
2017-08-12T03:01:28.049Z,91.10
2017-08-12T03:03:55.644Z,91.21
2017-08-12T03:06:23.618Z,90.99
2017-08-12T03:08:51.224Z,91.09
2017-08-12T03:11:18.867Z,91.13
2017-08-12T03:13:46.473Z,91.12
2017-08-12T03:16:14.064Z,91.24
2017-08-12T03:18:41.687Z,91.33
2017-08-12T03:21:09.289Z,91.36
2017-08-12T03:23:36.901Z,91.55
2017-08-12T03:26:04.491Z,91.64
2017-08-12T03:28:32.426Z,91.72
2017-08-12T03:31:00.011Z,91.81
2017-08-12T03:33:28.487Z,91.66
2017-08-12T03:35:56.146Z,91.58
2017-08-12T03:38:23.755Z,91.67
2017-08-12T03:40:51.351Z,91.77
2017-08-12T03:43:18.955Z,91.77
2017-08-12T03:45:46.569Z,91.76
2017-08-12T03:48:14.170Z,91.60
2017-08-12T03:50:42.105Z,91.57
2017-08-12T03:53:09.698Z,91.50
2017-08-12T03:55:37.306Z,91.44
2017-08-12T03:58:04.989Z,91.50
2017-08-12T04:00:32.709Z,91.70
2017-08-12T04:03:00.304Z,91.55
2017-08-12T04:05:28.015Z,91.50
2017-08-12T04:07:55.620Z,91.64
2017-08-12T04:10:24.214Z,91.55
2017-08-12T04:12:51.821Z,91.75
2017-08-12T04:15:19.404Z,91.80
2017-08-12T04:17:47.286Z,91.91
2017-08-12T04:20:14.877Z,91.84
2017-08-12T04:22:42.466Z,91.76
2017-08-12T04:25:10.224Z,91.81
2017-08-12T04:27:37.795Z,91.74
2017-08-12T04:30:05.449Z,91.72
2017-08-12T04:32:33.043Z,91.78
2017-08-12T04:35:00.653Z,91.64
2017-08-12T04:37:28.232Z,91.59
2017-08-12T04:39:55.830Z,91.47
2017-08-12T04:42:23.421Z,91.55
2017-08-12T04:44:51.399Z,91.63
2017-08-12T04:47:18.998Z,91.36
2017-08-12T04:49:46.600Z,91.39
2017-08-12T04:52:14.201Z,91.21
2017-08-12T04:54:41.805Z,91.37
2017-08-12T04:57:09.422Z,91.08
2017-08-12T04:59:37.034Z,91.16
2017-08-12T05:02:04.728Z,91.22
2017-08-12T05:04:32.509Z,91.35
2017-08-12T05:07:00.559Z,91.45
2017-08-12T05:09:28.158Z,91.36
2017-08-12T05:11:55.751Z,91.13
2017-08-12T05:14:23.489Z,91.06
2017-08-12T05:16:51.094Z,91.04
2017-08-12T05:19:18.801Z,90.89
2017-08-12T05:21:46.415Z,90.90
2017-08-12T05:24:14.034Z,90.95
2017-08-12T05:26:41.605Z,91.10
2017-08-12T05:29:09.242Z,91.03
2017-08-12T05:31:37.031Z,91.07
2017-08-12T05:34:04.797Z,91.00
2017-08-12T05:36:32.382Z,91.02
2017-08-12T05:39:00.267Z,91.09
2017-08-12T05:41:27.994Z,91.11
2017-08-12T05:43:55.578Z,91.24
2017-08-12T05:46:23.218Z,90.96
2017-08-12T05:48:50.808Z,90.93
2017-08-12T05:51:18.417Z,91.00
2017-08-12T05:53:46.004Z,90.84
2017-08-12T05:56:13.618Z,90.58
2017-08-12T05:58:41.229Z,90.75
2017-08-12T06:01:08.880Z,90.67
2017-08-12T06:03:36.486Z,90.70
2017-08-12T06:06:04.080Z,90.31
2017-08-12T06:08:31.681Z,90.40
2017-08-12T06:10:59.574Z,89.98
2017-08-12T06:13:27.184Z,89.93
2017-08-12T06:15:54.797Z,90.07
2017-08-12T06:18:22.386Z,89.96
2017-08-12T06:20:49.975Z,89.57
2017-08-12T06:23:17.609Z,89.61
2017-08-12T06:25:49.834Z,89.72
2017-08-12T06:28:17.583Z,89.84
2017-08-12T06:30:45.199Z,90.00
2017-08-12T06:33:13.242Z,89.96
2017-08-12T06:35:40.840Z,89.96
2017-08-12T06:38:08.510Z,90.01
2017-08-12T06:40:36.307Z,89.62
2017-08-12T06:43:05.571Z,89.50
2017-08-12T06:45:33.202Z,89.77
2017-08-12T06:48:00.829Z,89.43
2017-08-12T06:50:28.943Z,89.18
2017-08-12T06:52:56.554Z,89.09
2017-08-12T06:55:24.148Z,88.91
2017-08-12T06:57:52.045Z,88.82
2017-08-12T07:00:19.637Z,88.60
2017-08-12T07:02:47.256Z,87.74
2017-08-12T07:05:15.017Z,87.86
2017-08-12T07:07:42.972Z,87.40
2017-08-12T07:10:10.569Z,87.76
2017-08-12T07:12:38.170Z,87.76
2017-08-12T07:15:05.795Z,87.25
2017-08-12T07:17:33.530Z,87.62
2017-08-12T07:20:01.994Z,87.28
2017-08-12T07:22:29.571Z,87.56
2017-08-12T07:24:57.198Z,87.02
2017-08-12T07:27:24.845Z,85.96
2017-08-12T07:29:52.443Z,85.79
2017-08-12T07:32:20.040Z,85.74
2017-08-12T07:34:47.644Z,84.30
2017-08-12T07:37:16.122Z,84.32
2017-08-12T07:39:43.797Z,83.90
2017-08-12T07:42:11.450Z,84.13
2017-08-12T07:44:39.109Z,84.51
2017-08-12T07:47:06.725Z,84.08
2017-08-12T07:49:34.481Z,83.21
2017-08-12T07:52:02.090Z,81.73
2017-08-12T07:54:29.729Z,82.59
2017-08-12T07:56:57.339Z,82.58
2017-08-12T07:59:24.957Z,80.90
2017-08-12T08:01:52.530Z,79.42
2017-08-12T08:04:20.272Z,79.46
2017-08-12T08:06:47.858Z,80.22
2017-08-12T08:09:15.808Z,80.14
2017-08-12T08:11:43.383Z,79.92
2017-08-12T08:14:11.024Z,79.75
2017-08-12T08:16:39.829Z,79.55
2017-08-12T08:19:07.438Z,77.97
2017-08-12T08:21:35.079Z,78.79
2017-08-12T08:24:02.683Z,78.25
2017-08-12T08:26:30.306Z,77.46
2017-08-12T08:28:57.899Z,76.98
2017-08-12T08:31:25.863Z,75.56
2017-08-12T08:33:53.456Z,76.46
2017-08-12T08:36:21.067Z,75.33
2017-08-12T08:38:48.678Z,74.82
2017-08-12T08:41:16.271Z,75.64
2017-08-12T08:43:43.897Z,72.74
2017-08-12T08:46:11.492Z,74.53
2017-08-12T08:48:39.122Z,74.97
2017-08-12T08:51:06.716Z,72.91
2017-08-12T08:53:34.354Z,72.56
2017-08-12T08:56:01.965Z,71.14
2017-08-12T08:58:29.928Z,71.26
2017-08-12T09:00:57.517Z,73.04
2017-08-12T09:03:25.105Z,71.25
2017-08-12T09:05:52.715Z,72.79
2017-08-12T09:08:20.316Z,71.91
2017-08-12T09:10:47.922Z,72.46
2017-08-12T09:13:15.653Z,72.96
2017-08-12T09:15:43.255Z,73.22
2017-08-12T09:18:10.868Z,73.83
2017-08-12T09:20:38.533Z,75.72
2017-08-12T09:23:06.162Z,74.20
2017-08-12T09:25:33.954Z,73.83
2017-08-12T09:28:01.581Z,73.62
2017-08-12T09:30:29.200Z,74.51
2017-08-12T09:32:56.917Z,75.89
2017-08-12T09:35:24.532Z,77.29
2017-08-12T09:37:52.148Z,78.37
2017-08-12T09:40:19.754Z,79.08
2017-08-12T09:42:47.359Z,80.38
2017-08-12T09:45:14.968Z,81.74
2017-08-12T09:47:42.686Z,81.18
2017-08-12T09:50:10.291Z,82.04
2017-08-12T09:52:37.919Z,81.98
2017-08-12T09:55:05.579Z,81.67
2017-08-12T09:57:33.195Z,81.26
2017-08-12T10:00:00.812Z,81.16
2017-08-12T10:02:28.405Z,79.58
2017-08-12T10:04:55.993Z,79.42
2017-08-12T10:07:23.620Z,79.33
2017-08-12T10:09:51.225Z,79.47
2017-08-12T10:12:18.853Z,78.87
2017-08-12T10:14:46.456Z,77.93
2017-08-12T10:17:14.065Z,77.37
2017-08-12T10:19:41.716Z,77.81
2017-08-12T10:22:09.770Z,78.28
2017-08-12T10:24:37.389Z,77.88
2017-08-12T10:27:05.023Z,77.57
2017-08-12T10:29:32.634Z,75.90
2017-08-12T10:32:00.250Z,76.13
2017-08-12T10:34:27.870Z,74.34
2017-08-12T10:36:55.459Z,73.08
2017-08-12T10:39:23.058Z,73.40
2017-08-12T10:41:50.650Z,73.09
2017-08-12T10:44:19.175Z,72.43
2017-08-12T10:46:46.779Z,69.59
2017-08-12T10:49:14.386Z,69.78
2017-08-12T10:51:42.003Z,70.79
2017-08-12T10:54:09.605Z,71.28
2017-08-12T10:56:37.221Z,68.87
2017-08-12T10:59:04.817Z,68.56
2017-08-12T11:01:32.419Z,70.22
2017-08-12T11:04:00.075Z,70.94
2017-08-12T11:06:27.685Z,70.21
2017-08-12T11:08:55.267Z,70.75
2017-08-12T11:11:22.859Z,70.91
2017-08-12T11:13:50.472Z,73.06
2017-08-12T11:16:18.089Z,69.09
2017-08-12T11:18:45.702Z,69.63
2017-08-12T11:21:13.343Z,69.80
2017-08-12T11:23:41.061Z,68.06
2017-08-12T11:26:08.695Z,69.23
2017-08-12T11:28:36.628Z,68.43
2017-08-12T11:31:04.301Z,70.36
2017-08-12T11:33:31.913Z,68.72
2017-08-12T11:35:59.522Z,70.48
2017-08-12T11:38:27.121Z,67.32
2017-08-12T11:40:54.796Z,67.68
2017-08-12T11:43:22.398Z,65.87
2017-08-12T11:45:50.013Z,66.18
2017-08-12T11:48:17.629Z,64.34
2017-08-12T11:50:45.753Z,65.54
2017-08-12T11:53:14.675Z,64.64
2017-08-12T11:55:43.398Z,62.55
2017-08-12T11:58:13.238Z,63.59
2017-08-12T12:03:08.748Z,64.26
2017-08-12T12:05:36.358Z,65.91
2017-08-12T12:08:04.160Z,62.65
2017-08-12T12:10:31.822Z,64.94
2017-08-12T12:12:59.783Z,63.02
2017-08-12T12:15:28.447Z,65.33
2017-08-12T12:17:56.178Z,62.81
2017-08-12T12:20:23.795Z,64.55
2017-08-12T12:22:51.398Z,63.20
2017-08-12T12:25:19.026Z,62.56
2017-08-12T12:27:46.733Z,65.62
2017-08-12T12:30:14.329Z,65.35
2017-08-12T12:32:41.944Z,63.13
2017-08-12T12:35:09.543Z,60.76
2017-08-12T12:37:37.136Z,60.17
2017-08-12T12:40:04.737Z,63.61
2017-08-12T12:42:32.344Z,63.07
2017-08-12T12:45:00.008Z,64.59
2017-08-12T12:47:27.623Z,63.57
2017-08-12T12:49:56.891Z,61.23
2017-08-12T12:52:24.500Z,61.06
2017-08-12T12:54:52.096Z,61.84
2017-08-12T12:57:19.747Z,63.91
2017-08-12T12:59:48.525Z,62.42
2017-08-12T13:02:16.224Z,62.97
2017-08-12T13:04:43.821Z,62.62
2017-08-12T13:07:11.412Z,63.35
2017-08-12T13:09:39.593Z,64.03
2017-08-12T13:12:07.211Z,64.41
2017-08-12T13:14:34.848Z,64.89
2017-08-12T13:17:02.450Z,62.89
2017-08-12T13:19:30.612Z,61.94
2017-08-12T13:21:58.227Z,63.06
2017-08-12T13:24:26.144Z,63.43
2017-08-12T13:26:54.913Z,63.82
2017-08-12T13:29:23.206Z,64.68
2017-08-12T13:31:51.659Z,63.05
2017-08-12T13:34:19.284Z,63.10
2017-08-12T13:36:46.874Z,66.75
2017-08-12T13:39:14.538Z,62.68
2017-08-12T13:41:42.241Z,62.90
2017-08-12T13:44:09.856Z,63.14
2017-08-12T13:46:37.477Z,63.77
2017-08-12T13:49:05.401Z,64.22
2017-08-12T13:51:34.478Z,64.67
2017-08-12T13:54:02.083Z,64.11
2017-08-12T13:56:29.688Z,64.83
2017-08-12T13:58:57.669Z,64.19
2017-08-12T14:01:25.286Z,66.49
2017-08-12T14:03:52.892Z,65.04
2017-08-12T14:06:21.005Z,64.13
2017-08-12T14:08:48.593Z,65.01
2017-08-12T14:11:16.224Z,64.57
2017-08-12T14:13:44.836Z,65.29
2017-08-12T14:16:12.479Z,66.43
2017-08-12T14:18:40.088Z,66.06
2017-08-12T14:21:08.666Z,65.61
2017-08-12T14:23:36.245Z,66.46
2017-08-12T14:26:03.889Z,66.57
2017-08-12T14:28:31.521Z,67.09
2017-08-12T14:31:02.069Z,68.14
2017-08-12T14:33:29.765Z,66.85
2017-08-12T14:35:57.426Z,66.42
2017-08-12T14:38:25.090Z,67.65
2017-08-12T14:40:53.013Z,68.22
2017-08-12T14:43:20.587Z,65.49
2017-08-12T14:45:48.343Z,64.84
2017-08-12T14:48:15.968Z,65.63
2017-08-12T14:50:43.616Z,63.61
2017-08-12T14:53:11.282Z,64.17
2017-08-12T14:55:39.482Z,63.88
2017-08-12T14:58:07.424Z,62.44
2017-08-12T15:00:35.018Z,62.99
2017-08-12T15:03:02.634Z,64.02
2017-08-12T15:05:30.251Z,63.72
2017-08-12T15:07:57.822Z,64.88
2017-08-12T15:10:25.424Z,65.71
2017-08-12T15:12:53.050Z,65.41
2017-08-12T15:15:21.005Z,66.24
2017-08-12T15:17:48.598Z,65.87
2017-08-12T15:20:16.388Z,66.48
2017-08-12T15:22:43.983Z,67.42
2017-08-12T15:25:11.789Z,68.27
2017-08-12T15:27:39.413Z,68.09
2017-08-12T15:30:07.002Z,67.30
2017-08-12T15:32:34.979Z,68.54
2017-08-12T15:35:02.571Z,68.73
2017-08-12T15:37:30.214Z,68.08
2017-08-12T15:39:57.826Z,68.46
2017-08-12T15:42:25.524Z,68.98
2017-08-12T15:44:53.264Z,68.83
2017-08-12T15:47:20.823Z,69.27
2017-08-12T15:49:48.794Z,69.10
2017-08-12T15:52:16.371Z,69.85
2017-08-12T15:54:43.971Z,70.05
2017-08-12T15:57:11.603Z,70.40
2017-08-12T15:59:39.204Z,70.29
2017-08-12T16:02:06.837Z,70.42
2017-08-12T16:04:34.482Z,69.78
2017-08-12T16:07:02.510Z,70.19
2017-08-12T16:09:30.108Z,70.49
2017-08-12T16:11:57.695Z,70.14
2017-08-12T16:14:25.306Z,70.09
2017-08-12T16:16:56.138Z,69.98
2017-08-12T16:19:23.868Z,70.55
2017-08-12T16:21:51.549Z,70.95
2017-08-12T16:24:19.551Z,70.92
2017-08-12T16:26:47.213Z,71.54
2017-08-12T16:29:14.821Z,71.95
2017-08-12T16:31:42.414Z,71.61
2017-08-12T16:34:10.005Z,71.09
2017-08-12T16:36:37.630Z,71.63
2017-08-12T16:39:05.436Z,71.64
2017-08-12T16:41:33.231Z,71.86
2017-08-12T16:44:00.838Z,71.45
2017-08-12T16:46:28.592Z,71.93
2017-08-12T16:48:56.225Z,71.70
2017-08-12T16:51:23.825Z,71.86
2017-08-12T16:53:51.812Z,71.36
2017-08-12T16:56:19.594Z,72.08
2017-08-12T16:58:47.191Z,72.44
2017-08-12T17:01:14.838Z,72.20
2017-08-12T17:03:42.445Z,72.19
2017-08-12T17:06:10.324Z,72.73
2017-08-12T17:08:37.910Z,72.24
2017-08-12T17:11:05.536Z,72.73
2017-08-12T17:13:33.167Z,72.38
2017-08-12T17:16:00.755Z,72.56
2017-08-12T17:18:28.389Z,72.74
2017-08-12T17:20:56.152Z,72.94
2017-08-12T17:23:24.138Z,72.94
2017-08-12T17:25:51.867Z,73.27
2017-08-12T17:28:19.481Z,73.26
2017-08-12T17:30:47.106Z,73.62
2017-08-12T17:33:14.665Z,74.25
2017-08-12T17:35:44.543Z,74.61
2017-08-12T17:38:13.578Z,74.55
2017-08-12T17:40:41.185Z,74.32
2017-08-12T17:43:08.833Z,74.28
2017-08-12T17:45:36.475Z,74.32
2017-08-12T17:48:04.105Z,74.29
2017-08-12T17:50:31.686Z,73.77
2017-08-12T17:53:00.049Z,73.04
2017-08-12T17:55:29.268Z,73.43
2017-08-12T17:57:58.565Z,72.87
2017-08-12T18:00:26.181Z,72.23
2017-08-12T18:02:54.246Z,73.22
2017-08-12T18:05:21.900Z,72.52
2017-08-12T18:07:52.042Z,72.09
2017-08-12T18:10:22.259Z,72.70
2017-08-12T18:12:49.883Z,73.05
2017-08-12T18:15:19.515Z,73.13
2017-08-12T18:17:47.340Z,73.40
2017-08-12T18:20:16.997Z,73.42
2017-08-12T18:22:44.697Z,73.07
2017-08-12T18:25:13.386Z,73.66
2017-08-12T18:27:41.131Z,74.11
2017-08-12T18:30:08.742Z,74.07
2017-08-12T18:32:36.390Z,73.71
2017-08-12T18:35:04.161Z,74.06
2017-08-12T18:37:31.803Z,74.12
2017-08-12T18:39:59.548Z,74.62
2017-08-12T18:42:27.196Z,75.01
2017-08-12T18:44:54.783Z,74.72
2017-08-12T18:47:25.685Z,75.21
2017-08-12T18:49:53.332Z,75.22
2017-08-12T18:52:20.917Z,75.37
2017-08-12T18:54:48.730Z,75.60
2017-08-12T18:57:17.629Z,75.70
2017-08-12T18:59:45.305Z,76.32
2017-08-12T19:02:12.933Z,76.58
2017-08-12T19:04:40.549Z,76.74
2017-08-12T19:07:08.120Z,76.96
2017-08-12T19:09:36.316Z,77.12
2017-08-12T19:12:04.705Z,77.30
2017-08-12T19:14:32.305Z,77.72
2017-08-12T19:16:59.940Z,77.86
2017-08-12T19:19:29.257Z,78.01
2017-08-12T19:21:57.019Z,78.26
2017-08-12T19:24:24.630Z,78.39
2017-08-12T19:26:52.264Z,78.52
2017-08-12T19:29:21.107Z,78.37
2017-08-12T19:31:48.852Z,78.58
2017-08-12T19:34:16.483Z,78.60
2017-08-12T19:36:44.124Z,78.79
2017-08-12T19:39:11.752Z,78.93
2017-08-12T19:41:39.808Z,79.22
2017-08-12T19:44:07.424Z,79.55
2017-08-12T19:46:36.563Z,79.56
2017-08-12T19:49:04.514Z,79.62
2017-08-12T19:51:34.568Z,79.70
2017-08-12T19:54:02.257Z,79.77
2017-08-12T19:56:29.924Z,80.01
2017-08-12T19:59:00.294Z,79.92
2017-08-12T20:01:28.873Z,80.02
2017-08-12T20:03:57.189Z,80.16
2017-08-12T20:06:26.034Z,80.22
2017-08-12T20:08:54.873Z,80.35
2017-08-12T20:11:24.365Z,80.48
2017-08-12T20:13:52.295Z,80.49
2017-08-12T20:16:19.906Z,80.64
2017-08-12T20:18:47.535Z,80.79
2017-08-12T20:21:19.623Z,80.92
2017-08-12T20:23:47.545Z,80.97
2017-08-12T20:26:16.515Z,81.18
2017-08-12T20:28:45.331Z,81.12
2017-08-12T20:31:14.504Z,81.12
2017-08-12T20:33:42.572Z,81.34
2017-08-12T20:36:10.854Z,81.51
2017-08-12T20:38:42.239Z,81.66
2017-08-12T20:41:09.976Z,81.61
2017-08-12T20:43:39.643Z,81.92
2017-08-12T20:46:08.670Z,82.11
2017-08-12T20:48:37.955Z,82.37
2017-08-12T20:51:05.935Z,82.61
2017-08-12T20:53:33.541Z,82.62
2017-08-12T20:56:01.289Z,82.79
2017-08-12T20:58:29.940Z,82.79
2017-08-12T21:00:57.567Z,82.92
2017-08-12T21:03:25.226Z,83.07
2017-08-12T21:05:52.817Z,83.22
2017-08-12T21:08:21.789Z,83.34
2017-08-12T21:10:49.424Z,83.52
2017-08-12T21:13:17.121Z,83.57
2017-08-12T21:15:44.754Z,83.51
2017-08-12T21:18:17.701Z,83.56
2017-08-12T21:20:45.301Z,83.82
2017-08-12T21:23:12.874Z,83.72
2017-08-12T21:25:40.533Z,83.71
2017-08-12T21:28:08.144Z,83.83
2017-08-12T21:30:35.754Z,83.94
2017-08-12T21:33:03.475Z,84.06
2017-08-12T21:35:31.079Z,84.19
2017-08-12T21:38:00.427Z,84.06
2017-08-12T21:40:28.127Z,84.01
2017-08-12T21:42:55.784Z,84.16
2017-08-12T21:45:23.708Z,84.08
2017-08-12T21:47:51.315Z,84.19
2017-08-12T21:50:20.040Z,84.48
2017-08-12T21:52:47.708Z,84.21
2017-08-12T21:55:16.329Z,84.16
2017-08-12T21:57:43.954Z,84.29
2017-08-12T22:00:11.642Z,84.24
2017-08-12T22:02:39.229Z,84.25
2017-08-12T22:05:06.918Z,84.25
2017-08-12T22:07:34.530Z,84.04
2017-08-12T22:10:02.118Z,84.18
2017-08-12T22:12:29.980Z,84.13
2017-08-12T22:14:57.547Z,83.94
2017-08-12T22:17:25.128Z,83.95
2017-08-12T22:19:52.753Z,84.12
2017-08-12T22:22:20.342Z,84.05
2017-08-12T22:24:47.952Z,84.09
2017-08-12T22:27:15.537Z,84.13
2017-08-12T22:29:43.176Z,84.11
2017-08-12T22:32:10.743Z,84.13
2017-08-12T22:34:38.334Z,84.15
2017-08-12T22:37:05.904Z,83.88
2017-08-12T22:39:33.874Z,83.74
2017-08-12T22:42:01.515Z,83.74
2017-08-12T22:44:29.122Z,84.07
2017-08-12T22:46:56.736Z,84.16
2017-08-12T22:49:24.418Z,84.22
2017-08-12T22:51:52.009Z,84.53
2017-08-12T22:54:19.705Z,84.62
2017-08-12T22:56:47.411Z,84.85
2017-08-12T22:59:15.111Z,85.02
2017-08-12T23:01:42.739Z,85.29
2017-08-12T23:04:10.325Z,85.20
2017-08-12T23:06:37.940Z,85.20
2017-08-12T23:09:05.514Z,85.16
2017-08-12T23:11:33.417Z,85.28
2017-08-12T23:14:01.002Z,85.23
2017-08-12T23:16:28.671Z,85.21
2017-08-12T23:18:56.397Z,85.37
2017-08-12T23:21:25.044Z,85.04
2017-08-12T23:23:52.655Z,85.28
2017-08-12T23:26:20.259Z,85.07
2017-08-12T23:28:47.868Z,84.93
2017-08-12T23:31:15.478Z,85.15
2017-08-12T23:33:43.450Z,85.05
2017-08-12T23:36:11.066Z,85.13
2017-08-12T23:38:38.650Z,85.29
2017-08-12T23:41:06.241Z,85.26
2017-08-12T23:43:33.839Z,85.36
2017-08-12T23:46:01.532Z,85.47
2017-08-12T23:48:29.185Z,85.43
2017-08-12T23:50:57.232Z,85.48
2017-08-12T23:53:24.834Z,85.68
2017-08-12T23:55:52.746Z,85.91
2017-08-12T23:58:20.324Z,85.80
